Salina, KS

12:04 AM CDT on March 25, 2017 (GMT -0500)
Peters Science Hall | | Change Station

Elev 1225 ft 38.81 °N, 97.61 °W | Updated 12 days ago

Overcast
Overcast
38.9 °F
Feels Like 29 °F
N
21.0
Wind Variable Wind from South
Gusts 31.0 mph

Today
High -- | Low -- °F
--% Chance of Precip.
Yesterday
High -- | Low -- °F
Precip. -- in
Pressure 29.91 in
Visibility 9.0 miles
Clouds Overcast 700 ft
Windchill 29 °F
Dew Point 28 °F
Humidity 64%
Rainfall in
Snow Depth Not available.
7:25 AM 7:47 PM
Waning Crescent, 10% visible
METAR KSLN 250453Z AUTO 36020KT 9SM -RA OVC007 07/06 A2992 RMK AO2 PK WND 34026/0401 RAB48 SLP126 P0000 T00720056
Pressure 29.91 in
Visibility 9.0 miles
Clouds Overcast 700 ft
Windchill 29 °F
Dew Point 28 °F
Humidity 64%
Rainfall in
Snow Depth Not available.
7:25 AM 7:47 PM
Waning Crescent, 10% visible
METAR KSLN 250453Z AUTO 36020KT 9SM -RA OVC007 07/06 A2992 RMK AO2 PK WND 34026/0401 RAB48 SLP126 P0000 T00720056

Get Severe Weather Alerts

Thanks for signing up!

Be on the lookout for a verification email in your inbox.

You'll start receiving the daily forecast at 8 AM.

×

10-Day Weather Forecast

Almanac

Astronomy

Mar. 25, 2017 Rise Set
Actual Time
Civil Twilight
Nautical Twilight
Astronomical Twilight
Moon
Length of Visible Light
Length of Day
Tomorrow will be .
, % of the Moon is Illuminated

Today's Extremes

State Highs State Lows

Community

WunderPhotos

Upload Photos

1,962,540 photos uploaded!

WunderBlog® & News

Nearby

Air Quality

  Air Quality AQ Index Pollutant
Not available.

Snow Depth

Station Depth Elevation

Earthquake Activity

City Distance Mag. Time & Date
Minimum magnitude displayed is 2.5.

Earthquake Activity

City Distance Mag. Time & Date
Minimum magnitude displayed is 2.5.

Coastal Water Temperatures

Place Temperature

Stations

Nearby Weather Stations

Station Location Temp. Windchill Dew Point Humidity Wind Precip. Elev Updated Type
                   

Watches & Warnings

There are currently no watches in effect.